Time;durP1;ratioP1;P1;durP2;ratioP2;P2;SDS_P1;SDS_P2;PMS_P1;PMS_P2;Temp;Humidity;BMP_temperature;BMP_pressure;BME280_temperature;BME280_humidity;BME280_pressure;Samples;Min_cycle;Max_cycle;Signal;HPM_P1;HPM_P2
2023/01/09 04:56:26;;;;;;;5.78;1.77;;;33.20;81.50;;;;;;4745404;27;10001767;-72
2023/01/09 04:58:53;;;;;;;4.28;1.92;;;33.20;81.10;;;;;;5087040;28;20039;-67
2023/01/09 05:01:20;;;;;;;4.18;1.88;;;32.90;79.70;;;;;;5082974;28;20462;-72
2023/01/09 05:03:47;;;;;;;4.28;1.55;;;32.10;81.10;;;;;;5082898;28;20020;-61
2023/01/09 05:06:14;;;;;;;2.28;1.42;;;32.70;79.90;;;;;;5084321;28;20316;-72
2023/01/09 05:08:41;;;;;;;3.05;1.80;;;33.10;79.20;;;;;;5084112;28;20054;-62
2023/01/09 05:11:08;;;;;;;5.28;1.80;;;33.00;78.40;;;;;;5087118;28;20151;-61
2023/01/09 05:13:35;;;;;;;7.35;1.55;;;33.30;79.30;;;;;;5085609;28;20334;-63
2023/01/09 05:16:01;;;;;;;3.60;1.50;;;33.90;78.20;;;;;;5084947;28;20422;-72
2023/01/09 05:18:28;;;;;;;4.93;1.80;;;34.20;77.40;;;;;;5085279;28;20448;-72
2023/01/09 05:20:55;;;;;;;3.72;1.42;;;33.90;77.30;;;;;;5086089;28;20126;-66
2023/01/09 05:23:22;;;;;;;4.07;1.35;;;33.70;77.10;;;;;;5081842;28;20032;-63
2023/01/09 05:25:49;;;;;;;5.53;1.77;;;33.90;78.50;;;;;;5082095;28;20421;-65
2023/01/09 05:28:16;;;;;;;2.90;1.52;;;34.00;77.80;;;;;;5079534;28;20024;-63
2023/01/09 05:30:43;;;;;;;5.18;1.63;;;34.10;78.40;;;;;;5078288;28;20038;-63
2023/01/09 05:33:10;;;;;;;4.20;1.55;;;33.40;77.70;;;;;;5081663;28;20025;-71
2023/01/09 05:35:37;;;;;;;3.78;1.58;;;33.10;78.50;;;;;;5087131;28;20368;-63
2023/01/09 05:38:05;;;;;;;3.95;1.40;;;32.80;79.20;;;;;;5086086;28;20024;-65
2023/01/09 05:40:32;;;;;;;3.05;1.40;;;32.50;79.80;;;;;;5087094;28;20021;-63
2023/01/09 05:42:59;;;;;;;4.43;1.77;;;32.40;79.60;;;;;;5085819;28;20055;-66
2023/01/09 05:45:26;;;;;;;5.43;1.50;;;32.40;80.10;;;;;;5082472;28;20027;-62
2023/01/09 05:47:53;;;;;;;2.05;1.45;;;32.50;80.40;;;;;;5082568;28;20111;-63
2023/01/09 05:50:20;;;;;;;2.92;1.60;;;32.60;81.30;;;;;;5085087;28;20103;-73
2023/01/09 05:52:47;;;;;;;4.82;1.58;;;33.30;79.80;;;;;;5087282;28;20125;-63
2023/01/09 05:55:14;;;;;;;5.35;2.50;;;33.10;79.50;;;;;;5085485;28;20055;-65
2023/01/09 05:57:41;;;;;;;4.90;1.85;;;32.60;81.80;;;;;;5079479;28;20568;-61
2023/01/09 06:00:08;;;;;;;4.70;1.60;;;33.10;81.30;;;;;;5083990;28;20055;-60
2023/01/09 06:02:35;;;;;;;4.35;1.40;;;33.50;80.50;;;;;;5082394;28;20109;-70
2023/01/09 06:05:02;;;;;;;3.75;1.35;;;33.70;79.70;;;;;;5078472;28;20028;-65
2023/01/09 06:07:29;;;;;;;4.25;1.95;;;33.80;79.30;;;;;;5069609;28;20020;-65
2023/01/09 06:09:56;;;;;;;4.50;1.60;;;33.90;79.10;;;;;;5069770;28;20129;-69
2023/01/09 06:12:23;;;;;;;3.55;1.40;;;33.80;78.60;;;;;;5064874;28;20105;-70
2023/01/09 06:14:50;;;;;;;2.85;1.40;;;33.10;80.30;;;;;;5061910;28;20542;-63
2023/01/09 06:17:17;;;;;;;4.32;1.40;;;33.10;79.60;;;;;;5067009;28;20032;-67
2023/01/09 06:19:44;;;;;;;2.28;1.20;;;32.70;80.60;;;;;;5068540;28;20024;-71
2023/01/09 06:22:10;;;;;;;4.30;1.60;;;32.40;82.50;;;;;;5061559;28;20416;-66
2023/01/09 06:24:37;;;;;;;3.38;1.50;;;32.80;81.40;;;;;;5070592;28;20027;-63
2023/01/09 06:27:05;;;;;;;3.33;1.50;;;33.30;82.30;;;;;;5068184;28;20456;-71
2023/01/09 06:29:32;;;;;;;2.72;1.50;;;33.70;80.10;;;;;;5068917;28;20024;-60
2023/01/09 06:31:59;;;;;;;4.20;1.40;;;33.30;79.20;;;;;;5069189;28;20033;-69
2023/01/09 06:34:26;;;;;;;3.72;1.15;;;33.60;80.50;;;;;;5070469;28;20028;-66
2023/01/09 06:36:53;;;;;;;2.83;1.30;;;33.40;79.10;;;;;;5067702;28;20028;-60
2023/01/09 06:39:20;;;;;;;2.65;1.33;;;33.10;80.40;;;;;;5064260;28;20059;-67
2023/01/09 06:41:47;;;;;;;3.13;1.17;;;33.10;79.60;;;;;;5061434;28;20028;-59
2023/01/09 06:44:14;;;;;;;3.97;1.50;;;33.10;80.80;;;;;;5067280;28;20455;-61
2023/01/09 06:46:41;;;;;;;4.28;1.50;;;33.30;81.00;;;;;;5066539;28;20200;-69
2023/01/09 06:49:09;;;;;;;4.20;1.50;;;33.30;79.90;;;;;;5063935;28;20033;-60
2023/01/09 06:51:35;;;;;;;2.78;1.40;;;33.00;81.40;;;;;;5072893;28;20447;-69
2023/01/09 06:54:02;;;;;;;2.30;1.13;;;33.30;80.30;;;;;;5073950;28;20032;-63
2023/01/09 06:56:29;;;;;;;5.85;1.50;;;33.60;79.60;;;;;;5066694;28;20472;-62
2023/01/09 06:58:56;;;;;;;3.30;1.30;;;33.70;78.70;;;;;;5070197;28;20046;-67
2023/01/09 07:01:23;;;;;;;1.73;1.02;;;33.30;79.80;;;;;;5062221;28;20401;-65
2023/01/09 07:03:50;;;;;;;3.58;1.30;;;33.10;79.80;;;;;;5067726;28;20029;-63
2023/01/09 07:06:18;;;;;;;2.92;1.08;;;33.30;79.10;;;;;;5066474;28;20490;-61
2023/01/09 07:08:45;;;;;;;2.53;1.27;;;33.20;79.60;;;;;;5075222;28;20122;-62
2023/01/09 07:11:12;;;;;;;4.82;1.30;;;33.60;78.90;;;;;;5077035;28;20119;-61
2023/01/09 07:13:39;;;;;;;3.80;1.35;;;33.10;79.20;;;;;;5081312;28;20085;-68
2023/01/09 07:16:06;;;;;;;3.30;1.30;;;32.70;79.90;;;;;;5079851;28;20042;-61
2023/01/09 07:18:33;;;;;;;2.88;1.35;;;32.90;80.10;;;;;;5068630;28;20322;-65
2023/01/09 07:21:00;;;;;;;3.45;1.10;;;33.30;81.40;;;;;;5066034;28;20029;-68
2023/01/09 07:23:27;;;;;;;3.20;1.42;;;33.60;78.70;;;;;;5066634;28;20039;-64
2023/01/09 07:25:54;;;;;;;4.53;1.50;;;33.60;78.90;;;;;;5064633;28;20032;-64
2023/01/09 07:28:21;;;;;;;3.28;1.17;;;33.60;79.40;;;;;;5071724;28;20776;-69
2023/01/09 07:30:48;;;;;;;2.55;1.30;;;33.50;78.50;;;;;;5073390;28;20047;-65
2023/01/09 07:33:15;;;;;;;3.35;1.17;;;33.60;78.10;;;;;;5070571;28;20032;-64
2023/01/09 07:35:42;;;;;;;2.72;1.13;;;33.90;77.90;;;;;;5073219;28;20554;-66
2023/01/09 07:38:09;;;;;;;1.88;1.08;;;34.10;77.00;;;;;;5082643;28;20020;-63
2023/01/09 07:40:37;;;;;;;3.97;1.00;;;34.40;76.80;;;;;;5068485;28;20382;-64
2023/01/09 07:43:04;;;;;;;3.03;1.55;;;33.60;76.90;;;;;;5075536;28;20016;-64
2023/01/09 07:45:31;;;;;;;2.28;1.02;;;33.60;77.50;;;;;;5074597;28;20027;-62
2023/01/09 07:47:58;;;;;;;3.95;1.20;;;33.10;78.20;;;;;;5076216;28;20111;-62
2023/01/09 07:50:25;;;;;;;2.40;1.20;;;32.80;79.10;;;;;;5079073;28;20066;-64
2023/01/09 07:52:52;;;;;;;1.50;0.90;;;33.30;78.00;;;;;;5071590;28;20193;-63
2023/01/09 07:55:19;;;;;;;3.63;1.30;;;33.40;77.70;;;;;;5004864;27;20376;-62
2023/01/09 07:57:50;;;;;;;4.07;1.10;;;32.80;77.60;;;;;;5004064;28;20037;-63
2023/01/09 08:00:19;;;;;;;2.00;1.00;;;32.50;78.40;;;;;;5009947;28;20300;-62
2023/01/09 08:02:52;;;;;;;2.53;0.93;;;32.40;77.70;;;;;;5004644;28;20032;-65
2023/01/09 08:05:19;;;;;;;3.92;1.48;;;32.30;79.10;;;;;;5003656;28;20443;-63
2023/01/09 08:07:46;;;;;;;2.10;0.98;;;32.30;78.80;;;;;;5002788;28;20057;-63
2023/01/09 08:10:13;;;;;;;3.30;1.48;;;32.20;79.10;;;;;;5002765;28;20190;-65
2023/01/09 08:12:43;;;;;;;4.82;1.17;;;32.40;79.60;;;;;;5009710;28;20034;-64
2023/01/09 08:15:10;;;;;;;4.10;1.42;;;32.50;79.00;;;;;;5004469;28;20061;-63
2023/01/09 08:17:38;;;;;;;3.05;1.10;;;32.20;78.40;;;;;;5003756;28;20408;-63
2023/01/09 08:20:06;;;;;;;1.58;1.02;;;32.00;79.20;;;;;;5003691;28;20546;-63
2023/01/09 08:22:33;;;;;;;3.35;1.10;;;31.90;79.60;;;;;;5003286;28;20022;-63
2023/01/09 08:24:59;;;;;;;1.80;0.85;;;31.40;78.90;;;;;;5007371;28;20036;-61
2023/01/09 08:27:26;;;;;;;1.65;1.00;;;30.60;79.90;;;;;;5009819;28;20041;-65
2023/01/09 08:29:53;;;;;;;3.83;1.20;;;30.60;80.50;;;;;;5004462;28;20038;-63
2023/01/09 08:32:20;;;;;;;3.25;1.50;;;29.80;82.30;;;;;;5005598;28;20140;-62
2023/01/09 08:34:47;;;;;;;2.92;1.10;;;28.90;83.90;;;;;;5005555;28;20033;-64
2023/01/09 08:37:14;;;;;;;3.55;1.05;;;27.90;86.00;;;;;;5003328;28;20083;-64
2023/01/09 08:39:41;;;;;;;3.17;1.40;;;27.20;87.20;;;;;;5006584;28;20026;-64
2023/01/09 08:47:39;;;;;;;2.20;1.23;;;26.20;90.40;;;;;;5003900;28;20491;-65
2023/01/09 08:50:06;;;;;;;2.75;1.13;;;25.80;90.70;;;;;;5005589;28;20034;-70
2023/01/09 08:52:33;;;;;;;3.08;1.10;;;25.40;91.50;;;;;;5007360;28;20571;-64
2023/01/09 08:55:00;;;;;;;4.07;1.38;;;25.20;91.50;;;;;;5003080;28;20132;-68
2023/01/09 08:57:27;;;;;;;1.63;1.00;;;24.90;92.10;;;;;;5002290;28;20037;-64
2023/01/09 08:59:54;;;;;;;4.13;1.20;;;24.70;92.60;;;;;;5003709;28;20030;-64
2023/01/09 09:02:21;;;;;;;2.75;1.13;;;24.50;93.30;;;;;;5003089;28;20026;-62
2023/01/09 09:04:51;;;;;;;3.78;1.73;;;24.30;94.00;;;;;;5005987;28;20037;-62
2023/01/09 09:07:25;;;;;;;4.60;1.30;;;24.20;94.50;;;;;;5006092;28;20041;-64
2023/01/09 09:09:53;;;;;;;3.80;1.50;;;24.00;95.10;;;;;;5004577;28;20022;-65
2023/01/09 09:12:21;;;;;;;2.75;1.38;;;23.90;95.70;;;;;;5002515;28;20030;-68
2023/01/09 09:17:33;;;;;;;3.15;1.25;;;23.70;95.60;;;;;;5001095;28;20109;-61
2023/01/09 09:20:00;;;;;;;1.90;1.10;;;23.60;95.60;;;;;;5004544;28;20057;-69
2023/01/09 09:22:27;;;;;;;4.68;1.75;;;23.60;95.70;;;;;;5003193;28;20049;-62
2023/01/09 09:24:54;;;;;;;4.20;1.27;;;23.50;95.50;;;;;;4999540;28;20532;-68
2023/01/09 09:27:21;;;;;;;2.00;1.13;;;23.40;95.50;;;;;;5001816;28;20125;-68
2023/01/09 09:29:48;;;;;;;3.30;1.38;;;23.30;96.20;;;;;;5003091;28;20038;-66
2023/01/09 09:32:15;;;;;;;2.03;0.90;;;23.30;96.10;;;;;;5005855;28;20026;-61
2023/01/09 09:34:42;;;;;;;1.65;0.98;;;23.20;96.50;;;;;;5005370;28;20026;-61
2023/01/09 09:37:09;;;;;;;3.40;1.30;;;23.10;97.50;;;;;;5002640;28;20381;-62
2023/01/09 09:39:35;;;;;;;3.40;1.30;;;23.10;97.50;;;;;;5007214;28;20030;-61
2023/01/09 09:45:24;;;;;;;1.25;1.10;;;22.80;98.60;;;;;;5006204;28;20093;-62
2023/01/09 09:48:15;;;;;;;2.40;1.52;;;22.70;99.50;;;;;;5009288;28;20030;-62
2023/01/09 09:51:12;;;;;;;4.80;1.48;;;22.80;99.70;;;;;;5003729;28;20569;-62
2023/01/09 09:54:01;;;;;;;5.45;1.40;;;22.60;99.90;;;;;;5009690;28;20053;-62
2023/01/09 09:56:37;;;;;;;5.78;1.38;;;22.50;99.90;;;;;;5003878;28;20659;-61
2023/01/09 09:59:16;;;;;;;3.65;1.40;;;22.50;99.90;;;;;;5011837;28;20546;-61
2023/01/09 10:01:52;;;;;;;6.38;1.30;;;22.40;99.90;;;;;;5002093;28;20603;-62
2023/01/09 10:04:23;;;;;;;4.80;1.25;;;22.30;99.90;;;;;;5004293;28;20526;-68
2023/01/09 10:06:56;;;;;;;2.63;1.15;;;22.20;99.90;;;;;;5004873;28;20089;-62
2023/01/09 10:09:41;;;;;;;2.53;1.20;;;22.10;99.90;;;;;;5005517;28;20087;-68
2023/01/09 10:12:26;;;;;;;5.25;1.30;;;22.00;99.90;;;;;;5007639;28;20025;-63
2023/01/09 10:15:01;;;;;;;2.15;1.23;;;22.00;99.90;;;;;;5007528;28;20029;-67
2023/01/09 10:17:52;;;;;;;3.10;1.33;;;21.90;99.90;;;;;;5011445;28;20025;-66
2023/01/09 10:20:38;;;;;;;2.83;1.40;;;21.80;99.90;;;;;;5004211;28;20017;-66
2023/01/09 10:23:07;;;;;;;5.95;1.73;;;21.70;99.90;;;;;;5005849;28;20199;-60
2023/01/09 10:25:50;;;;;;;2.47;1.15;;;21.70;99.90;;;;;;5009000;28;20026;-62
2023/01/09 10:28:35;;;;;;;3.63;2.22;;;21.50;99.90;;;;;;5012303;28;20036;-63
2023/01/09 10:31:16;;;;;;;2.63;1.60;;;21.50;99.90;;;;;;5006415;28;20044;-65
2023/01/09 10:34:24;;;;;;;3.88;1.35;;;21.30;99.90;;;;;;5008765;28;20308;-61
2023/01/09 10:36:58;;;;;;;2.75;1.30;;;21.30;99.90;;;;;;4935216;28;20047;-67
2023/01/09 10:39:54;;;;;;;5.38;2.10;;;21.00;99.90;;;;;;4940209;28;20363;-62
2023/01/09 10:42:36;;;;;;;4.45;1.70;;;20.90;99.90;;;;;;4852957;29;20045;-68
2023/01/09 10:45:06;;;;;;;5.07;1.88;;;20.60;99.90;;;;;;4850836;29;20037;-63
2023/01/09 10:47:36;;;;;;;4.20;1.85;;;20.50;99.90;;;;;;4835114;29;20090;-67
2023/01/09 10:50:44;;;;;;;3.83;1.92;;;20.50;99.90;;;;;;4829414;29;20037;-63
2023/01/09 10:53:29;;;;;;;4.90;1.98;;;20.50;99.90;;;;;;4832501;29;20042;-66
2023/01/09 10:56:05;;;;;;;3.92;1.85;;;20.50;99.90;;;;;;4832902;29;20045;-66
2023/01/09 10:58:32;;;;;;;3.92;1.30;;;20.40;99.90;;;;;;4844530;29;20414;-67
2023/01/09 11:01:00;;;;;;;6.80;1.83;;;20.20;99.90;;;;;;4841573;29;20049;-65
2023/01/09 11:03:28;;;;;;;4.00;1.70;;;20.10;99.90;;;;;;4841537;29;20556;-68
2023/01/09 11:05:57;;;;;;;3.33;1.30;;;20.00;99.90;;;;;;4838570;29;20166;-66
2023/01/09 11:08:30;;;;;;;4.15;1.52;;;20.00;99.90;;;;;;4833937;29;20708;-64
2023/01/09 11:11:00;;;;;;;2.67;1.65;;;20.20;99.90;;;;;;4838651;29;20077;-68
2023/01/09 11:13:32;;;;;;;2.50;1.10;;;20.30;99.90;;;;;;4873518;29;20040;-63
2023/01/09 11:16:17;;;;;;;3.97;1.98;;;20.20;99.90;;;;;;4910029;29;20147;-68
2023/01/09 11:18:57;;;;;;;3.92;1.75;;;20.20;99.90;;;;;;4956032;28;20034;-62
2023/01/09 11:21:34;;;;;;;3.22;1.85;;;20.10;99.90;;;;;;5002406;28;20065;-62
2023/01/09 11:24:20;;;;;;;3.92;1.80;;;20.00;99.90;;;;;;5010342;28;20445;-68
2023/01/09 11:26:49;;;;;;;2.55;1.77;;;19.90;99.90;;;;;;5005659;28;20025;-68
2023/01/09 11:29:20;;;;;;;4.28;1.55;;;20.00;99.90;;;;;;5006571;28;20507;-68
2023/01/09 11:31:57;;;;;;;3.13;1.65;;;19.90;99.90;;;;;;5003152;28;20531;-61
2023/01/09 11:34:27;;;;;;;3.50;1.70;;;19.70;99.90;;;;;;5006414;28;20430;-69
2023/01/09 11:37:03;;;;;;;1.55;1.25;;;19.70;99.90;;;;;;5008562;28;20029;-67
2023/01/09 11:39:33;;;;;;;4.47;2.00;;;19.60;99.90;;;;;;5016515;28;20044;-63
2023/01/09 11:42:03;;;;;;;2.17;1.58;;;19.50;99.90;;;;;;5005415;28;20025;-66
2023/01/09 11:44:32;;;;;;;3.35;1.75;;;19.30;99.90;;;;;;5002578;28;20217;-62
2023/01/09 11:46:59;;;;;;;4.03;1.48;;;19.30;99.90;;;;;;5014207;28;20036;-66
2023/01/09 11:49:31;;;;;;;3.65;1.92;;;19.30;99.90;;;;;;5006801;28;20070;-67
2023/01/09 11:52:25;;;;;;;4.37;1.73;;;19.30;99.90;;;;;;5005005;28;20435;-64
2023/01/09 11:55:05;;;;;;;3.55;1.65;;;19.30;99.90;;;;;;5010093;28;20104;-67
2023/01/09 11:57:33;;;;;;;3.13;1.60;;;19.30;99.90;;;;;;5008866;28;20073;-68
2023/01/09 12:00:23;;;;;;;2.58;1.50;;;19.30;99.90;;;;;;5009741;28;20033;-64
2023/01/09 12:03:15;;;;;;;3.53;1.67;;;19.20;99.90;;;;;;5008395;28;20065;-62
2023/01/09 12:05:54;;;;;;;2.45;1.40;;;19.20;99.90;;;;;;5008844;28;20028;-63
2023/01/09 12:08:33;;;;;;;2.63;1.83;;;19.10;99.90;;;;;;5003082;28;20040;-69
2023/01/09 12:11:51;;;;;;;2.10;1.40;;;19.20;99.90;;;;;;5006081;28;20104;-62
2023/01/09 12:14:58;;;;;;;4.47;1.60;;;19.20;99.90;;;;;;4985770;28;20033;-69
2023/01/09 12:17:53;;;;;;;3.42;1.60;;;19.10;99.90;;;;;;4989697;28;20025;-68
2023/01/09 12:20:29;;;;;;;5.38;1.40;;;19.10;99.90;;;;;;4985220;28;20030;-68
2023/01/09 12:23:24;;;;;;;2.83;1.30;;;19.10;99.90;;;;;;4989261;28;20053;-66
2023/01/09 12:26:17;;;;;;;3.08;1.40;;;19.10;99.90;;;;;;4988997;28;20062;-67
2023/01/09 12:29:20;;;;;;;3.35;1.50;;;19.20;99.90;;;;;;4990899;28;20403;-62
2023/01/09 12:32:08;;;;;;;2.22;1.40;;;19.30;99.90;;;;;;4990299;28;20292;-67
2023/01/09 12:34:38;;;;;;;2.55;1.45;;;19.30;99.90;;;;;;4989765;28;20050;-62
2023/01/09 12:37:31;;;;;;;3.42;1.25;;;19.30;99.90;;;;;;4990947;28;20027;-64
2023/01/09 12:40:16;;;;;;;3.50;1.67;;;19.30;99.90;;;;;;4986555;28;20541;-66
2023/01/09 12:42:58;;;;;;;5.30;1.80;;;19.20;99.90;;;;;;4991457;28;20037;-64
2023/01/09 12:45:43;;;;;;;3.03;1.47;;;19.00;99.90;;;;;;5003284;28;20497;-63
2023/01/09 12:48:36;;;;;;;2.13;1.52;;;18.80;99.90;;;;;;5016651;28;20069;-61
2023/01/09 12:51:08;;;;;;;;;;;18.60;99.90;;;;;;5017601;28;20052;-67
2023/01/09 12:53:44;;;;;;;3.40;1.67;;;18.50;99.90;;;;;;5009560;28;19956;-65
2023/01/09 12:56:16;;;;;;;3.75;1.70;;;18.50;99.90;;;;;;5013112;28;20523;-67
2023/01/09 12:58:43;;;;;;;3.85;1.48;;;18.50;99.90;;;;;;5010949;28;20112;-67
2023/01/09 13:01:19;;;;;;;5.13;1.90;;;18.40;99.90;;;;;;5010562;28;20104;-68
2023/01/09 13:04:33;;;;;;;2.83;1.55;;;18.30;99.90;;;;;;5011702;28;20026;-64
2023/01/09 13:07:13;;;;;;;2.17;1.35;;;18.20;99.90;;;;;;5012223;28;20026;-61
2023/01/09 13:10:05;;;;;;;5.57;2.00;;;18.10;99.90;;;;;;5012512;28;20017;-68
2023/01/09 13:12:38;;;;;;;3.15;1.80;;;18.00;99.90;;;;;;5018982;28;20066;-64
2023/01/09 13:15:34;;;;;;;2.75;1.58;;;18.00;99.90;;;;;;5004932;28;20436;-64
2023/01/09 13:18:10;;;;;;;3.50;1.77;;;17.90;99.90;;;;;;5009025;28;20038;-64
2023/01/09 13:20:51;;;;;;;3.05;1.63;;;17.80;99.90;;;;;;5013373;28;20381;-61
2023/01/09 13:23:24;;;;;;;2.53;1.50;;;17.80;99.90;;;;;;5013420;28;20483;-60
2023/01/09 13:25:56;;;;;;;3.70;1.90;;;17.80;99.90;;;;;;5008919;28;20061;-60
2023/01/09 13:28:32;;;;;;;2.88;1.80;;;17.80;99.90;;;;;;5014390;28;20499;-64
2023/01/09 13:31:11;;;;;;;3.42;1.75;;;17.70;99.90;;;;;;5017873;23;20042;-68
2023/01/09 13:33:45;;;;;;;3.00;1.63;;;17.70;99.90;;;;;;5012170;28;20025;-68
2023/01/09 13:36:35;;;;;;;4.90;2.28;;;17.60;99.90;;;;;;5013698;28;20029;-64
2023/01/09 13:39:02;;;;;;;4.32;1.85;;;17.60;99.90;;;;;;5013667;28;20018;-61
2023/01/09 13:44:20;;;;;;;3.20;1.80;;;17.50;99.90;;;;;;5011641;28;20055;-67
2023/01/09 13:46:51;;;;;;;4.53;1.90;;;17.50;99.90;;;;;;5011877;28;20484;-64
2023/01/09 13:49:42;;;;;;;2.97;1.75;;;17.50;99.90;;;;;;5010990;28;20025;-68
2023/01/09 13:52:35;;;;;;;2.20;1.63;;;17.40;99.90;;;;;;5007645;28;20424;-68
2023/01/09 13:55:14;;;;;;;2.70;1.73;;;17.40;99.90;;;;;;5009839;28;20065;-64
2023/01/09 13:57:46;;;;;;;2.47;1.88;;;17.30;99.90;;;;;;5006645;28;20033;-64
2023/01/09 14:00:13;;;;;;;4.82;1.90;;;17.30;99.90;;;;;;5012148;28;20088;-68
2023/01/09 14:02:41;;;;;;;2.45;1.40;;;17.30;99.90;;;;;;5012179;28;20140;-67
2023/01/09 14:05:25;;;;;;;7.15;2.33;;;17.30;99.90;;;;;;5011563;28;20120;-65
2023/01/09 14:08:05;;;;;;;3.88;1.90;;;17.30;99.90;;;;;;5006199;28;20383;-64
2023/01/09 14:10:48;;;;;;;2.90;2.00;;;17.30;99.90;;;;;;5005697;28;20026;-64
2023/01/09 14:13:17;;;;;;;7.18;2.63;;;17.30;99.90;;;;;;5006735;28;20404;-68
2023/01/09 14:15:45;;;;;;;4.40;2.20;;;17.30;99.90;;;;;;5012239;28;20026;-62
2023/01/09 14:18:23;;;;;;;13.13;2.92;;;17.30;99.90;;;;;;5010901;28;20033;-62
2023/01/09 14:20:59;;;;;;;7.00;2.35;;;17.50;99.90;;;;;;5010926;28;20464;-62
2023/01/09 14:23:29;;;;;;;25.83;4.22;;;17.60;99.90;;;;;;5010467;28;20037;-68
2023/01/09 14:25:57;;;;;;;28.45;4.70;;;17.60;99.90;;;;;;5011164;28;20061;-67
2023/01/09 14:28:26;;;;;;;38.00;5.93;;;17.70;99.90;;;;;;5011850;28;20064;-64
2023/01/09 14:30:53;;;;;;;24.15;4.63;;;17.60;99.90;;;;;;5009286;28;20370;-67
2023/01/09 14:33:23;;;;;;;19.08;4.70;;;17.50;99.90;;;;;;5007574;28;20036;-62
2023/01/09 14:36:02;;;;;;;17.90;3.72;;;17.50;99.90;;;;;;5010236;28;20022;-62
2023/01/09 14:38:36;;;;;;;13.65;3.78;;;17.40;99.90;;;;;;5013700;28;20368;-65
2023/01/09 14:41:03;;;;;;;13.30;2.83;;;17.30;99.90;;;;;;5011507;28;20022;-62
2023/01/09 14:43:40;;;;;;;11.68;3.53;;;17.40;99.90;;;;;;5011226;28;20456;-61
2023/01/09 14:46:15;;;;;;;7.97;2.67;;;17.40;99.90;;;;;;5012732;28;20119;-65
2023/01/09 14:49:26;;;;;;;6.18;3.08;;;17.50;99.90;;;;;;5013707;28;20030;-61
2023/01/09 14:51:54;;;;;;;6.70;2.63;;;17.40;99.90;;;;;;5007293;28;20053;-61
2023/01/09 14:54:36;;;;;;;7.22;2.75;;;17.30;99.90;;;;;;5012491;28;20460;-68
2023/01/09 14:57:21;;;;;;;5.30;2.77;;;17.20;99.90;;;;;;5013096;28;20511;-65
2023/01/09 15:00:18;;;;;;;7.18;2.60;;;17.20;99.90;;;;;;5013147;28;20384;-61
2023/01/09 15:02:46;;;;;;;8.85;3.17;;;17.10;99.90;;;;;;5013062;28;20026;-62
2023/01/09 15:05:24;;;;;;;4.97;2.92;;;17.10;99.90;;;;;;5010244;28;20042;-66
2023/01/09 15:07:51;;;;;;;7.03;2.42;;;17.00;99.90;;;;;;5011744;28;20026;-66
2023/01/09 15:10:30;;;;;;;7.20;2.53;;;17.20;99.90;;;;;;5012441;28;20025;-65
2023/01/09 15:13:00;;;;;;;6.57;2.42;;;17.20;99.90;;;;;;5012633;28;20037;-64
2023/01/09 15:15:28;;;;;;;4.68;2.40;;;17.20;99.90;;;;;;5011796;28;20057;-65
2023/01/09 15:18:09;;;;;;;6.13;3.13;;;17.40;99.90;;;;;;5011890;28;20057;-67
2023/01/09 15:20:36;;;;;;;4.50;2.70;;;17.50;99.90;;;;;;5012121;28;20022;-63
2023/01/09 15:23:04;;;;;;;5.57;3.15;;;17.50;99.90;;;;;;5010323;28;20025;-68
2023/01/09 15:25:31;;;;;;;5.20;2.70;;;17.50;99.90;;;;;;5006456;28;20068;-64
2023/01/09 15:27:59;;;;;;;5.85;2.75;;;17.60;99.90;;;;;;5011680;28;20030;-68
2023/01/09 15:30:35;;;;;;;5.93;2.88;;;17.70;99.90;;;;;;5012532;28;20050;-67
2023/01/09 15:33:15;;;;;;;7.25;4.50;;;17.50;99.90;;;;;;5011450;28;20029;-66
2023/01/09 15:35:47;;;;;;;6.53;3.53;;;17.30;99.90;;;;;;5008629;28;20361;-67
2023/01/09 15:38:24;;;;;;;4.20;2.92;;;17.10;99.90;;;;;;5005854;28;20493;-68
2023/01/09 15:40:57;;;;;;;5.13;2.83;;;17.10;99.90;;;;;;5011239;28;20025;-62
2023/01/09 15:43:26;;;;;;;5.82;2.63;;;17.10;99.90;;;;;;5011791;28;20483;-61
2023/01/09 15:45:53;;;;;;;6.68;3.47;;;17.30;99.90;;;;;;5011364;28;20427;-65
2023/01/09 15:48:32;;;;;;;5.00;2.40;;;17.20;99.90;;;;;;5011971;28;20484;-65
2023/01/09 15:51:17;;;;;;;5.00;2.30;;;17.10;99.90;;;;;;5000066;28;20597;-65
2023/01/09 15:53:48;;;;;;;9.23;2.55;;;17.00;99.90;;;;;;5008938;28;20049;-61
2023/01/09 15:56:18;;;;;;;11.57;2.55;;;16.90;99.90;;;;;;5011182;28;20037;-68
2023/01/09 15:58:50;;;;;;;8.55;2.78;;;16.90;99.90;;;;;;5011589;28;20121;-62
2023/01/09 16:01:25;;;;;;;10.93;2.97;;;16.80;99.90;;;;;;5011204;28;20316;-65
2023/01/09 16:03:55;;;;;;;11.20;3.40;;;16.80;99.90;;;;;;5009796;28;20104;-65
2023/01/09 16:06:28;;;;;;;16.65;3.22;;;16.80;99.90;;;;;;5009023;28;20034;-61
2023/01/09 16:08:57;;;;;;;17.67;3.50;;;16.70;99.90;;;;;;5011156;28;20080;-63
2023/01/09 16:11:32;;;;;;;10.80;3.58;;;16.60;99.90;;;;;;5011531;28;20491;-65
2023/01/09 16:14:33;;;;;;;13.80;3.95;;;16.60;99.90;;;;;;5008452;28;20033;-67
2023/01/09 16:17:05;;;;;;;11.48;3.70;;;16.50;99.90;;;;;;5007952;28;20439;-64
2023/01/09 16:19:48;;;;;;;8.10;3.90;;;16.50;99.90;;;;;;5008915;28;20049;-65
2023/01/09 16:22:26;;;;;;;10.45;2.85;;;16.60;99.90;;;;;;5004380;28;20077;-67
2023/01/09 16:25:01;;;;;;;15.45;3.33;;;16.70;99.90;;;;;;5007899;28;20022;-64
2023/01/09 16:27:29;;;;;;;10.65;3.33;;;16.80;99.90;;;;;;5007936;28;20045;-64
2023/01/09 16:29:58;;;;;;;10.90;3.13;;;16.80;99.90;;;;;;5008603;28;20448;-61
2023/01/09 16:32:29;;;;;;;9.32;2.83;;;16.70;99.90;;;;;;5007914;28;20040;-64
2023/01/09 16:34:59;;;;;;;5.65;2.83;;;16.60;99.90;;;;;;5008287;28;20037;-61
2023/01/09 16:37:26;;;;;;;5.20;2.88;;;16.40;99.90;;;;;;5005616;28;20042;-67
2023/01/09 16:40:20;;;;;;;8.30;2.80;;;16.30;99.90;;;;;;5007907;28;20055;-63
2023/01/09 16:43:02;;;;;;;8.40;3.55;;;16.20;99.90;;;;;;5001156;28;20062;-68
2023/01/09 16:45:34;;;;;;;8.30;3.13;;;16.20;99.90;;;;;;4999441;28;20524;-63
2023/01/09 16:48:03;;;;;;;7.23;2.90;;;16.40;99.90;;;;;;5007234;28;20065;-65
2023/01/09 16:50:30;;;;;;;6.35;2.72;;;16.50;99.90;;;;;;5006827;28;20369;-61
2023/01/09 16:52:57;;;;;;;10.63;3.28;;;16.50;99.90;;;;;;5008594;28;20061;-67
2023/01/09 16:55:24;;;;;;;5.70;3.47;;;16.60;99.90;;;;;;5008599;28;20090;-67
2023/01/09 16:57:51;;;;;;;10.27;3.45;;;16.50;99.90;;;;;;5008160;28;20574;-64
2023/01/09 17:00:19;;;;;;;7.07;3.22;;;16.40;99.90;;;;;;5010905;28;20485;-67
2023/01/09 17:02:47;;;;;;;7.57;4.00;;;16.40;99.90;;;;;;5007354;28;20014;-64
2023/01/09 17:05:14;;;;;;;9.93;3.50;;;16.40;99.90;;;;;;5010054;28;20511;-62
2023/01/09 17:07:41;;;;;;;15.13;3.72;;;16.40;99.90;;;;;;5010284;28;20079;-65
2023/01/09 17:10:19;;;;;;;13.07;3.67;;;16.40;99.90;;;;;;5011740;28;20057;-64
2023/01/09 17:12:46;;;;;;;9.38;4.15;;;16.40;99.90;;;;;;5004705;28;20061;-68
2023/01/09 17:15:14;;;;;;;10.60;3.05;;;16.30;99.90;;;;;;5010368;28;20026;-67
2023/01/09 17:17:40;;;;;;;8.35;3.65;;;16.40;99.90;;;;;;5009168;28;20022;-65
2023/01/09 17:20:28;;;;;;;7.95;3.20;;;16.50;99.90;;;;;;5011511;28;20022;-64
2023/01/09 17:22:55;;;;;;;4.75;3.00;;;16.50;99.90;;;;;;5006342;28;20021;-67
2023/01/09 17:28:34;;;;;;;8.00;3.33;;;16.40;99.90;;;;;;5010531;28;20106;-61
2023/01/09 17:31:08;;;;;;;3.90;3.10;;;16.40;99.90;;;;;;5003136;28;20053;-61
2023/01/09 17:33:36;;;;;;;10.85;2.45;;;16.30;99.90;;;;;;5009443;28;20057;-65
2023/01/09 17:36:06;;;;;;;5.65;2.78;;;16.30;99.90;;;;;;5007288;28;20502;-62
2023/01/09 17:38:33;;;;;;;7.15;2.88;;;16.30;99.90;;;;;;5010454;28;20030;-64
2023/01/09 17:41:00;;;;;;;3.65;2.67;;;16.30;99.90;;;;;;5011438;28;20017;-63
2023/01/09 17:43:27;;;;;;;9.00;2.88;;;16.40;99.90;;;;;;5010651;28;20026;-61
2023/01/09 17:45:55;;;;;;;7.13;2.83;;;16.50;99.90;;;;;;5010390;28;20034;-64
2023/01/09 17:48:22;;;;;;;4.65;2.70;;;16.40;99.90;;;;;;5011014;28;20075;-66
2023/01/09 17:50:49;;;;;;;4.82;2.78;;;16.30;99.90;;;;;;5010282;28;20026;-64
2023/01/09 17:53:18;;;;;;;8.50;2.72;;;16.20;99.90;;;;;;5010801;28;20041;-64
2023/01/09 17:55:45;;;;;;;7.93;3.03;;;16.10;99.90;;;;;;5010068;28;20029;-65
2023/01/09 17:58:30;;;;;;;5.57;2.65;;;15.90;99.90;;;;;;5010788;28;20480;-64
2023/01/09 18:00:58;;;;;;;5.97;2.80;;;15.80;99.90;;;;;;5004557;28;20053;-64
2023/01/09 18:03:32;;;;;;;5.82;2.60;;;15.80;99.90;;;;;;5012269;28;20022;-61
2023/01/09 18:05:59;;;;;;;2.72;2.17;;;15.70;99.90;;;;;;5014194;28;20402;-64
2023/01/09 18:08:26;;;;;;;6.47;2.53;;;15.60;99.90;;;;;;5010215;28;20101;-65
2023/01/09 18:10:53;;;;;;;14.85;9.05;;;15.60;99.90;;;;;;5011454;28;20018;-66
2023/01/09 18:13:21;;;;;;;13.07;10.18;;;15.50;99.90;;;;;;5010767;28;20553;-66
2023/01/09 18:15:48;;;;;;;11.80;8.10;;;15.60;99.90;;;;;;5011094;28;20117;-65
2023/01/09 18:18:15;;;;;;;6.55;4.88;;;15.50;99.90;;;;;;5008756;28;20025;-64
2023/01/09 18:20:43;;;;;;;13.95;11.13;;;15.50;99.90;;;;;;5009452;28;20030;-62
2023/01/09 18:23:11;;;;;;;7.80;3.95;;;15.60;99.90;;;;;;5009025;28;20466;-61
2023/01/09 18:25:42;;;;;;;6.63;4.88;;;15.50;99.90;;;;;;5009083;28;20037;-61
2023/01/09 18:28:14;;;;;;;12.25;6.18;;;15.50;99.90;;;;;;5003191;28;20539;-64